Cranford, New Jersey
Current Conditions -  °F | °C
As of 8:35 AM on Thursday 23 Oct 2014 (Local Time) from KLDJ Reporting Station
Moderate Rain Moderate Rain  
Wind Chill: 55°   Ceiling: 3000
Heat Index: 55°   Visibility: 4mi
Dew Point: 51°   Wind: 12mph
Humidity: 88%   Direction: 350°N
Pressure: 29.73"   Gusts: 17mph
Location:  40.66°N, 74.3°W
Report Text: KLDJ 231235Z AUTO 35010G15KT 4SM RA BKN030 OVC034 13/11 A2973 RMK AO2 P0004 T01270107
Loading
Personal Weather Stations






























Interactive Weather Map
Tropical Storm Tracking
New forecast layout! Learn more

10-Day Weather Forecast

Advertisements
Track Severe Weather on mobile